Time;durP1;ratioP1;P1;durP2;ratioP2;P2;SDS_P1;SDS_P2;PMS_P1;PMS_P2;Temp;Humidity;BMP_temperature;BMP_pressure;BME280_temperature;BME280_humidity;BME280_pressure;Samples;Min_cycle;Max_cycle;Signal;HPM_P1;HPM_P2
2022/01/19 00:01:06;;;;;;;0.20;0.20;;;;;;;;;;1780017;79;26259;-37
2022/01/19 00:03:34;;;;;;;0.30;0.30;;;;;;;;;;1784421;79;26182;-35
2022/01/19 00:06:01;;;;;;;0.40;0.40;;;;;;;;;;1804775;78;26604;-36
2022/01/19 00:08:29;;;;;;;0.37;0.37;;;;;;;;;;1793957;79;26715;-36
2022/01/19 00:10:57;;;;;;;0.20;0.20;;;;;;;;;;1796664;78;26376;-35
2022/01/19 00:13:25;;;;;;;0.30;0.30;;;;;;;;;;1795071;78;26254;-35
2022/01/19 00:15:53;;;;;;;0.40;0.40;;;;;;;;;;1801113;79;26818;-35
2022/01/19 00:18:21;;;;;;;0.20;0.20;;;;;;;;;;1801991;78;26312;-35
2022/01/19 00:20:49;;;;;;;0.40;0.40;;;;;;;;;;1788520;78;26295;-35
2022/01/19 00:23:18;;;;;;;0.30;0.30;;;;;;;;;;1801435;79;26705;-35
2022/01/19 00:25:47;;;;;;;0.33;0.33;;;;;;;;;;1800367;79;26190;-36
2022/01/19 00:28:15;;;;;;;0.40;0.40;;;;;;;;;;1786689;78;26368;-38
2022/01/19 00:30:42;;;;;;;0.40;0.40;;;;;;;;;;1807719;78;26314;-35
2022/01/19 00:33:10;;;;;;;0.30;0.30;;;;;;;;;;1806113;79;26254;-36
2022/01/19 00:35:37;;;;;;;0.30;0.30;;;;;;;;;;1807852;78;26233;-36
2022/01/19 00:38:06;;;;;;;0.30;0.30;;;;;;;;;;1792450;78;26285;-35
2022/01/19 00:40:34;;;;;;;0.47;0.47;;;;;;;;;;1806162;79;26627;-35
2022/01/19 00:43:01;;;;;;;0.30;0.30;;;;;;;;;;1814440;78;26231;-37
2022/01/19 00:45:29;;;;;;;0.30;0.30;;;;;;;;;;1805647;78;26606;-35
2022/01/19 00:47:56;;;;;;;0.30;0.30;;;;;;;;;;1806300;79;26245;-38
2022/01/19 00:50:25;;;;;;;0.30;0.30;;;;;;;;;;1806063;78;26217;-36
2022/01/19 00:52:53;;;;;;;0.30;0.30;;;;;;;;;;1805572;78;26219;-35
2022/01/19 00:55:22;;;;;;;0.33;0.33;;;;;;;;;;1795792;78;26269;-36
2022/01/19 00:57:50;;;;;;;0.20;0.20;;;;;;;;;;1805668;79;26288;-36
2022/01/19 01:00:19;;;;;;;0.50;0.50;;;;;;;;;;1805452;78;26340;-35
2022/01/19 01:02:46;;;;;;;0.35;0.35;;;;;;;;;;1804695;78;26324;-35
2022/01/19 01:05:14;;;;;;;0.40;0.40;;;;;;;;;;1797230;79;26191;-40
2022/01/19 01:07:41;;;;;;;0.37;0.37;;;;;;;;;;1795654;78;26551;-36
2022/01/19 01:10:09;;;;;;;0.30;0.30;;;;;;;;;;1793669;78;26427;-37
2022/01/19 01:20:36;;;;;;;0.47;0.47;;;;;;;;;;1804582;78;26358;-36
2022/01/19 01:23:07;;;;;;;0.40;0.40;;;;;;;;;;1804420;78;26299;-36
2022/01/19 01:25:35;;;;;;;0.30;0.30;;;;;;;;;;1806546;79;26226;-35
2022/01/19 01:28:03;;;;;;;0.40;0.40;;;;;;;;;;1795241;78;26742;-37
2022/01/19 01:30:30;;;;;;;0.30;0.30;;;;;;;;;;1800218;78;26278;-36
2022/01/19 01:32:57;;;;;;;0.40;0.40;;;;;;;;;;1802881;79;26296;-35
2022/01/19 01:35:24;;;;;;;0.40;0.37;;;;;;;;;;1805069;78;26725;-35
2022/01/19 01:37:52;;;;;;;0.40;0.40;;;;;;;;;;1804177;78;26871;-36
2022/01/19 01:40:19;;;;;;;0.37;0.37;;;;;;;;;;1805573;78;26182;-35
2022/01/19 01:42:47;;;;;;;0.40;0.40;;;;;;;;;;1806448;79;26559;-35
2022/01/19 01:45:16;;;;;;;0.37;0.37;;;;;;;;;;1806422;78;26257;-36
2022/01/19 01:47:49;;;;;;;0.50;0.50;;;;;;;;;;1791477;79;26412;-36
2022/01/19 01:55:27;;;;;;;0.25;0.25;;;;;;;;;;1805557;78;26591;-35
2022/01/19 01:57:55;;;;;;;1.55;0.45;;;;;;;;;;1801675;78;26233;-36
2022/01/19 02:00:23;;;;;;;0.40;0.40;;;;;;;;;;1805885;79;26222;-37
2022/01/19 02:02:51;;;;;;;1.55;0.40;;;;;;;;;;1796142;78;26231;-35
2022/01/19 02:05:21;;;;;;;0.35;0.35;;;;;;;;;;1800833;79;26234;-35
2022/01/19 02:08:17;;;;;;;0.40;0.40;;;;;;;;;;1789669;79;26733;-35
2022/01/19 02:11:31;;;;;;;0.62;0.50;;;;;;;;;;1806924;78;26250;-36
2022/01/19 02:16:18;;;;;;;0.50;0.50;;;;;;;;;;1797729;78;26268;-36
2022/01/19 02:23:59;;;;;;;0.55;0.50;;;;;;;;;;1803787;78;26298;-35
2022/01/19 02:28:59;;;;;;;0.40;0.40;;;;;;;;;;1803494;78;26226;-36
2022/01/19 02:29:02;;;;;;;0.40;0.40;;;;;;;;;;1774673;79;26274;-36
2022/01/19 02:42:29;;;;;;;1.17;0.62;;;;;;;;;;1805035;78;26324;-37
2022/01/19 02:49:56;;;;;;;0.50;0.50;;;;;;;;;;1791809;79;26294;-39
2022/01/19 02:52:24;;;;;;;0.40;0.40;;;;;;;;;;1802449;78;26258;-37
2022/01/19 02:54:52;;;;;;;0.40;0.40;;;;;;;;;;1803944;78;26312;-36
2022/01/19 02:57:24;;;;;;;0.40;0.40;;;;;;;;;;1801068;79;26322;-35
2022/01/19 03:10:41;;;;;;;0.45;0.45;;;;;;;;;;1798517;79;26253;-37
2022/01/19 03:13:08;;;;;;;0.40;0.40;;;;;;;;;;1805370;78;26261;-38
2022/01/19 03:15:35;;;;;;;0.33;0.33;;;;;;;;;;1805616;78;26887;-37
2022/01/19 03:18:02;;;;;;;0.50;0.50;;;;;;;;;;1799080;79;26291;-35
2022/01/19 03:20:30;;;;;;;0.82;0.42;;;;;;;;;;1806260;78;26316;-36
2022/01/19 03:23:12;;;;;;;0.55;0.40;;;;;;;;;;1805842;78;26288;-35
2022/01/19 03:25:38;;;;;;;0.50;0.50;;;;;;;;;;1804551;78;26241;-36
2022/01/19 03:28:05;;;;;;;0.47;0.40;;;;;;;;;;1803688;79;26311;-36
2022/01/19 03:30:32;;;;;;;0.50;0.50;;;;;;;;;;1789463;78;26314;-35
2022/01/19 03:33:00;;;;;;;0.82;0.40;;;;;;;;;;1800913;78;26725;-35
2022/01/19 03:35:27;;;;;;;0.42;0.42;;;;;;;;;;1795361;79;26331;-35
2022/01/19 03:37:54;;;;;;;0.50;0.50;;;;;;;;;;1794064;78;26794;-36
2022/01/19 03:40:22;;;;;;;0.35;0.35;;;;;;;;;;1806234;79;26203;-35
2022/01/19 03:42:50;;;;;;;0.40;0.40;;;;;;;;;;1793449;79;26309;-37
2022/01/19 03:45:18;;;;;;;0.30;0.30;;;;;;;;;;1803920;78;26336;-35
2022/01/19 03:47:53;;;;;;;0.40;0.40;;;;;;;;;;1799060;78;26658;-35
2022/01/19 03:50:14;;;;;;;0.40;0.40;;;;;;;;;;1801720;78;27428;-37
2022/01/19 03:52:41;;;;;;;0.40;0.40;;;;;;;;;;1795073;79;26563;-37
2022/01/19 03:55:11;;;;;;;0.70;0.70;;;;;;;;;;1785635;79;26227;-38
2022/01/19 03:57:38;;;;;;;0.82;0.45;;;;;;;;;;1803521;78;26257;-36
2022/01/19 04:00:08;;;;;;;0.42;0.42;;;;;;;;;;1801673;79;26235;-35
2022/01/19 04:02:36;;;;;;;0.30;0.30;;;;;;;;;;1803205;78;26223;-37
2022/01/19 04:05:11;;;;;;;0.50;0.50;;;;;;;;;;1794134;79;26262;-35
2022/01/19 04:07:33;;;;;;;0.53;0.53;;;;;;;;;;1794140;78;26345;-35
2022/01/19 04:10:00;;;;;;;0.33;0.33;;;;;;;;;;1784644;78;26245;-36
2022/01/19 04:12:53;;;;;;;0.57;0.57;;;;;;;;;;1806014;78;26811;-36
2022/01/19 04:14:59;;;;;;;0.40;0.40;;;;;;;;;;1799329;78;26297;-36
2022/01/19 04:17:27;;;;;;;0.45;0.45;;;;;;;;;;1799259;79;26272;-36
2022/01/19 04:19:56;;;;;;;0.60;0.45;;;;;;;;;;1806410;78;26820;-36
2022/01/19 04:22:23;;;;;;;0.60;0.60;;;;;;;;;;1802020;78;26319;-38
2022/01/19 04:24:50;;;;;;;0.40;0.40;;;;;;;;;;1802550;79;26361;-36
2022/01/19 04:29:57;;;;;;;0.40;0.40;;;;;;;;;;1800367;78;26232;-35
2022/01/19 04:32:23;;;;;;;0.40;0.40;;;;;;;;;;1798210;79;26761;-38
2022/01/19 04:34:48;;;;;;;0.47;0.47;;;;;;;;;;1804340;79;26778;-35
2022/01/19 05:04:11;;;;;;;0.60;0.60;;;;;;;;;;1738248;81;26352;-35
2022/01/19 05:06:34;;;;;;;0.40;0.40;;;;;;;;;;1730198;81;26361;-35
2022/01/19 05:09:08;;;;;;;0.72;0.50;;;;;;;;;;1760859;79;26344;-38
2022/01/19 05:14:15;;;;;;;0.30;0.30;;;;;;;;;;1805008;78;26801;-38
2022/01/19 05:16:42;;;;;;;0.55;0.55;;;;;;;;;;1800337;78;26334;-37
2022/01/19 05:19:10;;;;;;;0.50;0.50;;;;;;;;;;1805076;78;26241;-38
2022/01/19 05:21:37;;;;;;;0.68;0.68;;;;;;;;;;1808475;78;26670;-37
2022/01/19 05:24:07;;;;;;;0.72;0.70;;;;;;;;;;1803577;79;26167;-36
2022/01/19 05:26:36;;;;;;;0.50;0.50;;;;;;;;;;1805481;78;26310;-37
2022/01/19 05:29:04;;;;;;;0.60;0.60;;;;;;;;;;1797353;78;26322;-37
2022/01/19 05:31:31;;;;;;;0.53;0.40;;;;;;;;;;1798061;78;26231;-35
2022/01/19 05:33:58;;;;;;;0.60;0.60;;;;;;;;;;1797606;78;26238;-35
2022/01/19 05:36:26;;;;;;;0.50;0.50;;;;;;;;;;1799802;78;26286;-37
2022/01/19 05:38:53;;;;;;;0.60;0.60;;;;;;;;;;1805453;78;26234;-35
2022/01/19 05:41:21;;;;;;;0.70;0.70;;;;;;;;;;1811637;78;26388;-36
2022/01/19 05:43:49;;;;;;;0.50;0.50;;;;;;;;;;1801825;78;26351;-38
2022/01/19 05:46:16;;;;;;;1.65;0.50;;;;;;;;;;1809426;78;26233;-36
2022/01/19 05:48:43;;;;;;;0.45;0.45;;;;;;;;;;1804924;79;26323;-37
2022/01/19 05:51:11;;;;;;;0.75;0.50;;;;;;;;;;1799956;78;26270;-35
2022/01/19 05:53:38;;;;;;;0.60;0.60;;;;;;;;;;1803716;78;26252;-36
2022/01/19 05:56:06;;;;;;;0.90;0.50;;;;;;;;;;1811556;78;26277;-39
2022/01/19 05:58:33;;;;;;;0.60;0.60;;;;;;;;;;1806287;79;26864;-36
2022/01/19 06:01:01;;;;;;;0.30;0.30;;;;;;;;;;1797401;78;26810;-37
2022/01/19 06:03:29;;;;;;;0.57;0.50;;;;;;;;;;1797926;78;26266;-36
2022/01/19 06:05:56;;;;;;;1.00;0.60;;;;;;;;;;1805664;79;26230;-36
2022/01/19 06:10:56;;;;;;;0.40;0.40;;;;;;;;;;1796450;78;26253;-36
2022/01/19 06:13:24;;;;;;;0.50;0.50;;;;;;;;;;1794716;78;26246;-35
2022/01/19 06:15:52;;;;;;;0.62;0.57;;;;;;;;;;1800203;78;26367;-35
2022/01/19 06:18:20;;;;;;;1.95;0.90;;;;;;;;;;1803075;78;26224;-38
2022/01/19 06:20:48;;;;;;;0.60;0.60;;;;;;;;;;1800106;78;26241;-38
2022/01/19 06:23:15;;;;;;;1.20;0.50;;;;;;;;;;1804709;79;26687;-37
2022/01/19 06:25:43;;;;;;;0.57;0.57;;;;;;;;;;1788408;78;26301;-35
2022/01/19 06:28:10;;;;;;;1.35;0.60;;;;;;;;;;1788073;78;26674;-35
2022/01/19 06:30:38;;;;;;;0.70;0.60;;;;;;;;;;1795229;79;26357;-36
2022/01/19 06:33:06;;;;;;;0.40;0.40;;;;;;;;;;1803175;78;26287;-35
2022/01/19 06:35:33;;;;;;;0.47;0.47;;;;;;;;;;1792689;79;26265;-36
2022/01/19 06:38:01;;;;;;;0.65;0.65;;;;;;;;;;1801092;79;26231;-35
2022/01/19 06:40:29;;;;;;;1.42;0.57;;;;;;;;;;1803832;79;26227;-35
2022/01/19 06:42:57;;;;;;;0.60;0.60;;;;;;;;;;1786599;79;26640;-36
2022/01/19 06:45:24;;;;;;;0.40;0.40;;;;;;;;;;1808736;78;26278;-37
2022/01/19 06:47:52;;;;;;;0.40;0.40;;;;;;;;;;1794924;78;26732;-35
2022/01/19 06:50:20;;;;;;;0.42;0.42;;;;;;;;;;1794331;78;26325;-37
2022/01/19 06:52:48;;;;;;;0.80;0.78;;;;;;;;;;1804881;78;26242;-36
2022/01/19 06:55:16;;;;;;;0.50;0.50;;;;;;;;;;1788228;79;26246;-38
2022/01/19 06:57:46;;;;;;;0.60;0.60;;;;;;;;;;1790093;79;26680;-36
2022/01/19 07:00:15;;;;;;;0.57;0.57;;;;;;;;;;1766229;80;26383;-41
2022/01/19 07:02:42;;;;;;;0.40;0.40;;;;;;;;;;1773258;80;27464;-34
2022/01/19 07:05:10;;;;;;;0.47;0.47;;;;;;;;;;1762098;80;26304;-34
2022/01/19 07:07:38;;;;;;;0.70;0.70;;;;;;;;;;1766684;80;26302;-35
2022/01/19 07:10:07;;;;;;;0.72;0.72;;;;;;;;;;1781404;79;26380;-35
2022/01/19 07:12:34;;;;;;;1.22;0.57;;;;;;;;;;1775546;79;26287;-36
2022/01/19 07:15:02;;;;;;;0.70;0.70;;;;;;;;;;1778656;80;25917;-34
2022/01/19 07:17:29;;;;;;;0.70;0.70;;;;;;;;;;1763424;80;26844;-34
2022/01/19 07:19:56;;;;;;;0.50;0.50;;;;;;;;;;1780544;80;26757;-33
2022/01/19 07:22:23;;;;;;;0.55;0.55;;;;;;;;;;1763951;79;26385;-40
2022/01/19 07:24:51;;;;;;;0.40;0.40;;;;;;;;;;1767465;79;26297;-38
2022/01/19 07:27:18;;;;;;;1.15;0.45;;;;;;;;;;1777652;79;26362;-37
2022/01/19 07:29:46;;;;;;;1.30;0.60;;;;;;;;;;1775194;79;26279;-34
2022/01/19 07:32:13;;;;;;;0.55;0.53;;;;;;;;;;1779039;79;26243;-37
2022/01/19 07:34:41;;;;;;;3.17;0.70;;;;;;;;;;1774087;80;26428;-35
2022/01/19 07:37:08;;;;;;;1.57;0.72;;;;;;;;;;1777354;79;26443;-34
2022/01/19 07:39:35;;;;;;;0.70;0.70;;;;;;;;;;1778719;80;26373;-35
2022/01/19 07:42:03;;;;;;;0.65;0.65;;;;;;;;;;1772102;79;26271;-38
2022/01/19 07:44:30;;;;;;;1.47;0.60;;;;;;;;;;1763093;80;26308;-35
2022/01/19 07:46:58;;;;;;;0.50;0.50;;;;;;;;;;1770259;80;26620;-35
2022/01/19 07:49:25;;;;;;;0.60;0.60;;;;;;;;;;1770880;80;26318;-34
2022/01/19 07:51:52;;;;;;;0.72;0.70;;;;;;;;;;1764873;80;26298;-34
2022/01/19 07:54:20;;;;;;;0.85;0.55;;;;;;;;;;1761952;80;26376;-38
2022/01/19 07:56:47;;;;;;;0.50;0.50;;;;;;;;;;1777682;80;26376;-35
2022/01/19 07:59:15;;;;;;;0.70;0.70;;;;;;;;;;1773785;80;26333;-35
2022/01/19 08:01:43;;;;;;;0.50;0.50;;;;;;;;;;1774592;80;26408;-34
2022/01/19 08:04:10;;;;;;;1.52;0.60;;;;;;;;;;1779776;80;26341;-34
2022/01/19 08:06:38;;;;;;;0.95;0.60;;;;;;;;;;1783289;79;27476;-35
2022/01/19 08:09:07;;;;;;;0.70;0.57;;;;;;;;;;1783493;79;26311;-37
2022/01/19 08:11:35;;;;;;;0.50;0.50;;;;;;;;;;1782844;79;26845;-34
2022/01/19 08:14:03;;;;;;;0.70;0.60;;;;;;;;;;1779586;79;26349;-35
2022/01/19 08:16:30;;;;;;;0.80;0.60;;;;;;;;;;1769176;79;26327;-36
2022/01/19 08:18:57;;;;;;;0.50;0.50;;;;;;;;;;1788301;79;26291;-33
2022/01/19 08:21:24;;;;;;;0.70;0.70;;;;;;;;;;1775396;79;28282;-35
2022/01/19 08:23:52;;;;;;;0.70;0.70;;;;;;;;;;1782063;79;26255;-33
2022/01/19 08:26:19;;;;;;;0.62;0.62;;;;;;;;;;1781385;79;26331;-35
2022/01/19 08:28:46;;;;;;;0.70;0.62;;;;;;;;;;1784296;79;27363;-33
2022/01/19 08:31:14;;;;;;;0.50;0.50;;;;;;;;;;1779120;79;26310;-35
2022/01/19 08:33:42;;;;;;;0.55;0.55;;;;;;;;;;1783225;80;26358;-35
2022/01/19 08:36:09;;;;;;;0.40;0.40;;;;;;;;;;1780244;79;26450;-37
2022/01/19 08:38:39;;;;;;;0.68;0.50;;;;;;;;;;1789012;79;26770;-34
2022/01/19 08:41:06;;;;;;;0.53;0.53;;;;;;;;;;1773671;79;26819;-34
2022/01/19 08:43:33;;;;;;;0.55;0.55;;;;;;;;;;1783222;79;26375;-35
2022/01/19 08:46:01;;;;;;;0.62;0.62;;;;;;;;;;1780389;79;26282;-34
2022/01/19 08:48:28;;;;;;;0.60;0.60;;;;;;;;;;1769178;79;26407;-35
2022/01/19 08:50:56;;;;;;;0.60;0.50;;;;;;;;;;1769758;79;26287;-35
2022/01/19 08:53:23;;;;;;;0.40;0.40;;;;;;;;;;1759655;80;26840;-35
2022/01/19 08:55:51;;;;;;;0.40;0.40;;;;;;;;;;1772559;79;26904;-36
2022/01/19 08:58:18;;;;;;;0.50;0.50;;;;;;;;;;1776918;79;26310;-38
2022/01/19 09:00:46;;;;;;;0.47;0.47;;;;;;;;;;1771387;79;26348;-37
2022/01/19 09:03:15;;;;;;;0.45;0.45;;;;;;;;;;1775291;79;26809;-39
2022/01/19 09:05:42;;;;;;;0.50;0.50;;;;;;;;;;1780690;79;26302;-35
2022/01/19 09:08:10;;;;;;;0.88;0.70;;;;;;;;;;1765066;80;26410;-37
2022/01/19 09:10:40;;;;;;;0.85;0.80;;;;;;;;;;1768743;79;26379;-33
2022/01/19 09:13:07;;;;;;;0.60;0.60;;;;;;;;;;1770246;79;26805;-33
2022/01/19 09:15:34;;;;;;;0.40;0.40;;;;;;;;;;1780590;80;26239;-33
2022/01/19 09:18:02;;;;;;;0.47;0.47;;;;;;;;;;1773183;79;26310;-33
2022/01/19 09:20:29;;;;;;;0.50;0.50;;;;;;;;;;1771324;80;26782;-35
2022/01/19 09:22:57;;;;;;;0.70;0.70;;;;;;;;;;1769927;80;26376;-33
2022/01/19 09:25:24;;;;;;;0.42;0.42;;;;;;;;;;1763722;80;26441;-34
2022/01/19 09:27:51;;;;;;;0.50;0.50;;;;;;;;;;1764778;80;26290;-33
2022/01/19 09:30:21;;;;;;;0.60;0.60;;;;;;;;;;1768640;80;26286;-36
2022/01/19 09:33:09;;;;;;;0.47;0.47;;;;;;;;;;1770829;79;26436;-35
2022/01/19 09:38:30;;;;;;;0.50;0.50;;;;;;;;;;1769104;79;26361;-34
2022/01/19 09:40:58;;;;;;;0.50;0.50;;;;;;;;;;1768478;80;26299;-32
2022/01/19 09:43:26;;;;;;;0.60;0.60;;;;;;;;;;1767529;80;26334;-36
2022/01/19 09:45:55;;;;;;;0.55;0.55;;;;;;;;;;1771883;80;26606;-33
2022/01/19 09:48:22;;;;;;;0.50;0.50;;;;;;;;;;1770603;80;26920;-33
2022/01/19 09:50:50;;;;;;;0.53;0.53;;;;;;;;;;1767184;80;26391;-34
2022/01/19 09:53:17;;;;;;;0.70;0.68;;;;;;;;;;1770837;80;26862;-35
2022/01/19 09:55:45;;;;;;;0.60;0.60;;;;;;;;;;1767226;79;26334;-34
2022/01/19 09:58:13;;;;;;;0.53;0.53;;;;;;;;;;1763193;80;26373;-34
2022/01/19 10:00:41;;;;;;;0.60;0.60;;;;;;;;;;1768992;80;26695;-33
2022/01/19 10:03:16;;;;;;;0.50;0.50;;;;;;;;;;1769105;80;26313;-32
2022/01/19 10:05:45;;;;;;;0.57;0.57;;;;;;;;;;1774136;79;26619;-32
2022/01/19 10:08:12;;;;;;;0.70;0.60;;;;;;;;;;1771507;80;26266;-32
2022/01/19 10:10:39;;;;;;;0.60;0.60;;;;;;;;;;1766987;80;26356;-35
2022/01/19 10:18:38;;;;;;;3.35;0.70;;;;;;;;;;1763161;80;26387;-31
2022/01/19 10:21:07;;;;;;;0.60;0.60;;;;;;;;;;1770808;80;26397;-31
2022/01/19 10:23:39;;;;;;;0.60;0.60;;;;;;;;;;1780935;79;26293;-34
2022/01/19 10:26:11;;;;;;;0.75;0.60;;;;;;;;;;1773605;80;26230;-31
2022/01/19 10:28:56;;;;;;;0.50;0.50;;;;;;;;;;1774088;79;26360;-37
2022/01/19 10:31:23;;;;;;;0.65;0.65;;;;;;;;;;1771379;79;26308;-36
2022/01/19 10:34:09;;;;;;;1.35;0.57;;;;;;;;;;1771687;80;26307;-32
2022/01/19 10:36:47;;;;;;;0.70;0.70;;;;;;;;;;1765458;80;26291;-33
2022/01/19 10:39:16;;;;;;;0.42;0.42;;;;;;;;;;1766515;80;26223;-36
2022/01/19 10:42:01;;;;;;;0.78;0.70;;;;;;;;;;1769930;80;26399;-37
2022/01/19 10:44:30;;;;;;;0.65;0.65;;;;;;;;;;1778389;80;26758;-40
2022/01/19 10:46:57;;;;;;;0.60;0.60;;;;;;;;;;1766971;80;26380;-35
2022/01/19 10:49:25;;;;;;;0.60;0.60;;;;;;;;;;1779214;80;26305;-33
2022/01/19 10:51:57;;;;;;;0.70;0.70;;;;;;;;;;1782353;80;26379;-33
2022/01/19 10:54:26;;;;;;;0.70;0.70;;;;;;;;;;1770948;80;26246;-35
2022/01/19 10:56:58;;;;;;;0.70;0.70;;;;;;;;;;1775946;80;26798;-33
2022/01/19 10:59:28;;;;;;;0.72;0.68;;;;;;;;;;1771116;80;26247;-33
2022/01/19 11:01:56;;;;;;;0.53;0.53;;;;;;;;;;1767007;79;26768;-32
2022/01/19 11:04:28;;;;;;;0.78;0.78;;;;;;;;;;1773159;80;26663;-34
2022/01/19 11:06:57;;;;;;;0.53;0.50;;;;;;;;;;1776644;79;26341;-34
2022/01/19 11:09:27;;;;;;;0.55;0.55;;;;;;;;;;1776983;79;26668;-35
2022/01/19 11:11:55;;;;;;;0.55;0.55;;;;;;;;;;1763272;79;26367;-34
2022/01/19 11:14:25;;;;;;;0.82;0.70;;;;;;;;;;1780821;79;26271;-36
2022/01/19 11:16:52;;;;;;;0.65;0.65;;;;;;;;;;1772678;79;26765;-35
2022/01/19 11:19:21;;;;;;;1.05;0.70;;;;;;;;;;1770498;79;26301;-37
2022/01/19 11:21:52;;;;;;;0.62;0.62;;;;;;;;;;1770238;80;26361;-34
2022/01/19 11:24:27;;;;;;;1.00;0.90;;;;;;;;;;1779832;79;26754;-35
2022/01/19 11:26:55;;;;;;;2.60;0.70;;;;;;;;;;1780737;80;26228;-37
2022/01/19 11:29:24;;;;;;;0.72;0.72;;;;;;;;;;1783206;79;26356;-40
2022/01/19 11:31:53;;;;;;;1.67;0.65;;;;;;;;;;1777413;80;26587;-35
2022/01/19 11:34:39;;;;;;;0.80;0.80;;;;;;;;;;1772066;80;26372;-35
2022/01/19 11:37:07;;;;;;;0.53;0.53;;;;;;;;;;1766843;80;26321;-35
2022/01/19 11:39:35;;;;;;;0.50;0.50;;;;;;;;;;1780756;80;26793;-33
2022/01/19 11:42:04;;;;;;;0.95;0.95;;;;;;;;;;1781008;80;26322;-36
2022/01/19 11:44:33;;;;;;;0.53;0.53;;;;;;;;;;1780962;80;25405;-34
2022/01/19 11:47:02;;;;;;;0.57;0.57;;;;;;;;;;1763098;80;26833;-36
2022/01/19 11:49:46;;;;;;;0.50;0.50;;;;;;;;;;1748751;79;26309;-35
2022/01/19 11:52:19;;;;;;;0.50;0.50;;;;;;;;;;1767114;80;26861;-35
2022/01/19 11:54:46;;;;;;;0.60;0.60;;;;;;;;;;1759678;79;26309;-37
2022/01/19 11:57:15;;;;;;;1.57;0.60;;;;;;;;;;1754787;80;26739;-34
2022/01/19 11:59:47;;;;;;;0.50;0.50;;;;;;;;;;1763958;80;26306;-39
2022/01/19 12:02:24;;;;;;;0.40;0.40;;;;;;;;;;1790519;79;26207;-36
2022/01/19 12:04:54;;;;;;;0.50;0.50;;;;;;;;;;1788956;79;26266;-36
2022/01/19 12:07:35;;;;;;;0.70;0.70;;;;;;;;;;1809812;78;26252;-39
2022/01/19 12:10:03;;;;;;;0.60;0.60;;;;;;;;;;1773379;79;26782;-36
2022/01/19 12:12:36;;;;;;;0.65;0.65;;;;;;;;;;1783702;79;26199;-40
2022/01/19 12:15:05;;;;;;;0.57;0.57;;;;;;;;;;1791080;79;26375;-40
2022/01/19 12:17:30;;;;;;;0.53;0.53;;;;;;;;;;1782479;79;26312;-35
2022/01/19 12:20:01;;;;;;;0.60;0.60;;;;;;;;;;1778492;79;26312;-38
2022/01/19 12:22:28;;;;;;;0.70;0.70;;;;;;;;;;1787444;79;26341;-38
2022/01/19 12:24:57;;;;;;;1.10;0.60;;;;;;;;;;1800098;79;26296;-36
2022/01/19 12:27:26;;;;;;;0.50;0.50;;;;;;;;;;1799446;79;26294;-39
2022/01/19 12:30:03;;;;;;;0.85;0.50;;;;;;;;;;1800584;79;26669;-34
2022/01/19 12:32:35;;;;;;;0.62;0.62;;;;;;;;;;1777361;79;26240;-35
2022/01/19 12:35:08;;;;;;;0.70;0.70;;;;;;;;;;1782313;78;26222;-34
2022/01/19 12:37:46;;;;;;;0.70;0.70;;;;;;;;;;1799491;79;26318;-34
2022/01/19 12:40:15;;;;;;;0.50;0.50;;;;;;;;;;1800396;79;26246;-42
2022/01/19 12:42:44;;;;;;;0.72;0.72;;;;;;;;;;1782609;79;26242;-33
2022/01/19 12:45:18;;;;;;;0.60;0.60;;;;;;;;;;1799542;79;26611;-34
2022/01/19 12:47:47;;;;;;;0.70;0.68;;;;;;;;;;1796487;78;25854;-36
2022/01/19 12:50:19;;;;;;;1.65;0.70;;;;;;;;;;1793353;79;26241;-37
2022/01/19 12:52:52;;;;;;;0.60;0.60;;;;;;;;;;1781887;79;26317;-36
2022/01/19 12:55:20;;;;;;;0.60;0.60;;;;;;;;;;1796839;79;26268;-37
2022/01/19 12:57:48;;;;;;;0.53;0.53;;;;;;;;;;1787296;79;26579;-36
2022/01/19 13:00:17;;;;;;;0.50;0.50;;;;;;;;;;1791354;79;26694;-37
2022/01/19 13:02:45;;;;;;;0.60;0.60;;;;;;;;;;1782306;79;26335;-37
2022/01/19 13:05:14;;;;;;;0.57;0.57;;;;;;;;;;1766990;80;26376;-34
2022/01/19 13:07:53;;;;;;;0.70;0.70;;;;;;;;;;1763203;80;26306;-36
2022/01/19 13:13:11;;;;;;;0.70;0.60;;;;;;;;;;1777077;80;26289;-35
2022/01/19 13:15:47;;;;;;;0.60;0.60;;;;;;;;;;1764782;80;26896;-37
2022/01/19 13:18:31;;;;;;;0.62;0.60;;;;;;;;;;1774804;80;27287;-35
2022/01/19 13:21:04;;;;;;;0.60;0.60;;;;;;;;;;1780809;80;26302;-35
2022/01/19 13:23:31;;;;;;;0.50;0.50;;;;;;;;;;1779729;80;26245;-35
2022/01/19 13:26:00;;;;;;;0.60;0.60;;;;;;;;;;1778015;79;26332;-36
2022/01/19 13:28:30;;;;;;;0.50;0.50;;;;;;;;;;1775760;80;26380;-37
2022/01/19 13:31:02;;;;;;;0.50;0.50;;;;;;;;;;1771417;80;26271;-35
2022/01/19 13:33:29;;;;;;;0.50;0.50;;;;;;;;;;1762490;80;26577;-41
2022/01/19 13:35:58;;;;;;;0.57;0.57;;;;;;;;;;1773340;80;26333;-36
2022/01/19 13:38:26;;;;;;;0.50;0.50;;;;;;;;;;1765371;79;26349;-35
2022/01/19 13:41:04;;;;;;;0.40;0.40;;;;;;;;;;1767120;80;26399;-35
2022/01/19 13:43:32;;;;;;;0.68;0.68;;;;;;;;;;1769020;79;26284;-35
2022/01/19 13:46:13;;;;;;;0.50;0.50;;;;;;;;;;1763113;80;26596;-36
2022/01/19 13:48:31;;;;;;;0.40;0.40;;;;;;;;;;1762142;80;26380;-35
2022/01/19 13:51:05;;;;;;;0.30;0.30;;;;;;;;;;1767754;80;26322;-36
2022/01/19 13:53:34;;;;;;;0.60;0.50;;;;;;;;;;1760988;80;26308;-38
2022/01/19 13:56:02;;;;;;;0.60;0.60;;;;;;;;;;1780989;80;26424;-36
2022/01/19 13:58:34;;;;;;;0.50;0.50;;;;;;;;;;1775006;80;26714;-35
2022/01/19 14:01:03;;;;;;;0.50;0.50;;;;;;;;;;1765014;80;26383;-35
2022/01/19 14:03:37;;;;;;;0.50;0.50;;;;;;;;;;1796328;79;26273;-35
2022/01/19 14:06:06;;;;;;;1.40;0.50;;;;;;;;;;1793088;79;26329;-34
2022/01/19 14:08:36;;;;;;;0.50;0.50;;;;;;;;;;1796316;79;26234;-35
2022/01/19 14:11:03;;;;;;;0.57;0.57;;;;;;;;;;1800335;79;26222;-36
2022/01/19 14:13:32;;;;;;;0.60;0.60;;;;;;;;;;1795791;78;26407;-35
2022/01/19 14:16:00;;;;;;;0.60;0.60;;;;;;;;;;1797918;79;26241;-35
2022/01/19 14:18:28;;;;;;;0.50;0.50;;;;;;;;;;1773346;79;26253;-35
2022/01/19 14:21:05;;;;;;;0.50;0.50;;;;;;;;;;1794791;79;26255;-36
2022/01/19 14:23:33;;;;;;;0.60;0.60;;;;;;;;;;1794265;79;26345;-37
2022/01/19 14:26:10;;;;;;;0.50;0.50;;;;;;;;;;1785318;79;26222;-37
2022/01/19 14:28:38;;;;;;;0.70;0.70;;;;;;;;;;1786540;79;26832;-37
2022/01/19 14:31:12;;;;;;;0.40;0.40;;;;;;;;;;1797190;79;26334;-34
2022/01/19 14:33:37;;;;;;;0.53;0.53;;;;;;;;;;1795074;79;26782;-35
2022/01/19 14:36:04;;;;;;;0.60;0.60;;;;;;;;;;1799183;79;26241;-35
2022/01/19 14:38:36;;;;;;;0.62;0.62;;;;;;;;;;1793214;79;26228;-34
2022/01/19 14:41:05;;;;;;;0.70;0.70;;;;;;;;;;1798508;79;26313;-37
2022/01/19 14:43:39;;;;;;;0.60;0.60;;;;;;;;;;1793751;79;26704;-40
2022/01/19 14:46:06;;;;;;;0.72;0.62;;;;;;;;;;1791554;79;26308;-34
2022/01/19 14:48:36;;;;;;;0.62;0.62;;;;;;;;;;1800026;78;26800;-37
2022/01/19 14:51:05;;;;;;;0.60;0.60;;;;;;;;;;1799717;79;25343;-35
2022/01/19 14:53:33;;;;;;;0.75;0.75;;;;;;;;;;1792980;78;26333;-34
2022/01/19 14:56:01;;;;;;;0.60;0.60;;;;;;;;;;1788287;79;26246;-38
2022/01/19 14:58:29;;;;;;;0.65;0.65;;;;;;;;;;1799673;79;26266;-35
2022/01/19 15:00:57;;;;;;;0.70;0.60;;;;;;;;;;1790525;78;26306;-34
2022/01/19 15:03:24;;;;;;;0.65;0.57;;;;;;;;;;1797420;79;26285;-38
2022/01/19 15:05:52;;;;;;;0.70;0.70;;;;;;;;;;1805480;79;26929;-34
2022/01/19 15:08:19;;;;;;;0.70;0.70;;;;;;;;;;1806135;79;26615;-38
2022/01/19 15:10:46;;;;;;;0.60;0.60;;;;;;;;;;1792816;79;26332;-38
2022/01/19 15:13:14;;;;;;;0.60;0.60;;;;;;;;;;1804769;78;26297;-34
2022/01/19 15:15:41;;;;;;;0.75;0.70;;;;;;;;;;1792908;79;26222;-35
2022/01/19 15:18:08;;;;;;;1.80;1.50;;;;;;;;;;1799701;79;26299;-36
2022/01/19 15:20:37;;;;;;;2.77;1.60;;;;;;;;;;1794903;79;26229;-35
2022/01/19 15:23:05;;;;;;;7.90;2.37;;;;;;;;;;1801654;79;26317;-35
2022/01/19 15:25:34;;;;;;;5.78;1.90;;;;;;;;;;1802661;79;26797;-36
2022/01/19 15:28:02;;;;;;;3.10;1.65;;;;;;;;;;1796200;79;26218;-34
2022/01/19 15:30:31;;;;;;;5.42;1.75;;;;;;;;;;1792649;79;26261;-35
2022/01/19 15:32:58;;;;;;;3.52;1.72;;;;;;;;;;1794770;79;26876;-34
2022/01/19 15:35:26;;;;;;;4.62;1.82;;;;;;;;;;1788606;79;26243;-36
2022/01/19 15:37:55;;;;;;;3.20;1.60;;;;;;;;;;1784707;79;26843;-33
2022/01/19 15:40:25;;;;;;;5.42;1.75;;;;;;;;;;1793917;78;26815;-35
2022/01/19 15:42:52;;;;;;;3.22;1.32;;;;;;;;;;1781191;79;26827;-35
2022/01/19 15:45:19;;;;;;;5.15;1.42;;;;;;;;;;1795908;79;26267;-35
2022/01/19 15:47:47;;;;;;;4.72;1.62;;;;;;;;;;1797148;79;26694;-34
2022/01/19 15:50:14;;;;;;;1.62;1.22;;;;;;;;;;1803747;79;26309;-38
2022/01/19 15:52:42;;;;;;;2.85;1.25;;;;;;;;;;1799982;79;26761;-36
2022/01/19 15:55:09;;;;;;;5.08;1.90;;;;;;;;;;1801968;79;26728;-33
2022/01/19 15:57:37;;;;;;;3.62;1.40;;;;;;;;;;1805614;79;26307;-35
2022/01/19 16:00:09;;;;;;;3.98;1.30;;;;;;;;;;1801673;79;26701;-34
2022/01/19 16:02:36;;;;;;;1.92;1.30;;;;;;;;;;1795110;79;26247;-34
2022/01/19 16:05:04;;;;;;;3.58;1.20;;;;;;;;;;1800022;79;26669;-31
2022/01/19 16:07:31;;;;;;;2.33;1.35;;;;;;;;;;1789685;79;26245;-32
2022/01/19 16:09:59;;;;;;;3.00;1.22;;;;;;;;;;1799334;79;26238;-33
2022/01/19 16:12:27;;;;;;;2.27;0.93;;;;;;;;;;1796116;79;26349;-33
2022/01/19 16:14:54;;;;;;;2.70;1.30;;;;;;;;;;1798594;78;26380;-33
2022/01/19 16:17:22;;;;;;;1.30;1.15;;;;;;;;;;1793456;79;26258;-35
2022/01/19 16:19:49;;;;;;;2.50;1.00;;;;;;;;;;1794095;79;26230;-33
2022/01/19 16:27:47;;;;;;;2.33;1.05;;;;;;;;;;1791623;78;26758;-33
2022/01/19 16:30:15;;;;;;;1.17;1.07;;;;;;;;;;1798502;79;26233;-33
2022/01/19 16:32:42;;;;;;;1.42;1.07;;;;;;;;;;1797190;79;26210;-34